KHUL/HUL METAR and TAF weather

Enter ICAO airport designator
Station Type Date Time Source
KHUL METAR 2020/09/27 16:22 UTC NOAA

KHUL 271622Z AUTO 21009G15KT 10SM OVC016 20/16 A2994 RMK AO2 T02000156


Station Type Date Time Source
KHUL Decoded METAR 2020/09/27 16:22 UTC NOAA

HOULTON INT'L AIRPORT, ME, United States (KHUL) 46-07N 067-48W 150M
Sep 27, 2020 - 12:22 PM EDT / 2020.09.27 1622 UTC
Wind: from the SSW (210 degrees) at 10 MPH (9 KT) gusting to 17 MPH (15 KT):0
Visibility: 10 mile(s):0
Sky conditions: overcast
Temperature: 68.0 F (20.0 C)
Dew Point: 60.1 F (15.6 C)
Relative Humidity: 75%
Pressure (altimeter): 29.94 in. Hg (1013 hPa)
ob: KHUL 271622Z AUTO 21009G15KT 10SM OVC016 20/16 A2994 RMK AO2 T02000156
cycle: 16

Station Type Date Time Source
KHUL TAF 2020/09/27 14:04 UTC NOAA

TAF
AMD KHUL 271402Z 2714/2812 20010KT P6SM OVC006
FM271600 19010G18KT P6SM BKN015
FM271800 19012G20KT P6SM SCT050
FM272200 18010KT P6SM SCT050
FM280200 18010KT P6SM OVC010 WS020/23040KT
FM280600 18008KT P6SM OVC008 WS020/23040KT
FM280800 18008KT P6SM OVC004

Example: see airport list